Tiempo atmosférico en la estación meteorológica de Carballiño, O, Ourense (400 m.)



Fecha
DESCASC
Temp. máxima en grados centígrados (hora)
DESCASC
Temp. mínima en grados centígrados (hora)
DESCASC
Temp. media en grados centígrados
DESCASC
Racha de viento máxima en m/sg (hora)
DESCASC
Velocidad máxima media en intervalos de 10 minutos(hora)
DESCASC
Precipitaciones diarias en mm
DESCASC
Precipitaciones de 00:00 a 06:00 en mm
DESCASC
Precipitaciones de 06:00 a 12:00 en mm
DESCASC
Precipitaciones de 12:00 a 18:00 en mm
DESCASC
Precipitaciones de 18:00 a 24:00 en mm
DESCASC
24-01-2021 10.7 (15:40) 5.7 (08:30) 8.2 10 (00:10) 2.78 (01:20) 3.6 0.7 0.6 0.8 1.5
23-01-2021 13.3 (16:20) 7 (01:00) 10.2 13.61 (17:00) 5.28 (17:00) 15.2 2.7 4.3 7.6 0.6
22-01-2021 11.2 (15:30) 6.2 (09:40) 8.7 17.5 (03:00) 6.67 (03:00) 13.6 8.1 0 0.9 4.6
21-01-2021 13.8 (13:40) 8.9 (00:00) 11.3 11.67 (12:40) 3.61 (12:00) 21 2.9 7.5 0 10.6
20-01-2021 11.8 (15:30) 6.6 (00:00) 9.2 13.33 (15:30) 3.33 (15:20) 35.4 13 12.3 6 4.1
19-01-2021 11.6 (16:50) -0.5 (-00:0) 5.6 8.06 (20:30) 2.78 (20:30) 0.8 0 0 0 0.8
18-01-2021 12.6 (16:30) 0.7 (00:00) 6.7 2.5 (15:20) 1.11 (15:20) 0 0 0 0 0
17-01-2021 12.6 (16:10) -2.9 (-00:0) 4.9 2.22 (16:00) 0.83 (13:20) 0 0 0 0 0
16-01-2021 8.4 (16:30) -0.5 (-00:0) 3.9 2.22 (11:00) 1.11 (08:20) 0 0 0 0 0
15-01-2021 7.6 (16:10) 4.1 (00:00) 5.8 2.78 (13:50) 1.11 (11:50) 0 0 0 0 0
14-01-2021 6 (16:10) -3.6 (06:00) 1.2 1.67 (00:10) 1.11 (12:30) 0 0 0 0 0
13-01-2021 10.7 (15:30) -5 (-00:0) 2.8 2.5 (00:10) 1.11 (00:10) 0 0 0 0 0
12-01-2021 10.1 (15:30) -4.6 (-00:0) 2.8 2.5 (23:59) 1.11 (14:00) 0 0 0 0 0
11-01-2021 10.8 (15:20) -2.3 (-00:0) 4.3 4.72 (15:30) 1.67 (15:00) 0 0 0 0 0
10-01-2021 9.4 (14:00) 3 (21:50) 6.2 15.28 (12:40) 6.11 (15:00) 0 0 0 0 0
09-01-2021 7.6 (13:20) -3.9 (-00:0) 1.8 12.5 (22:30) 5 (14:30) 0 0 0 0 0
08-01-2021 7.3 (16:10) -3.9 (-00:0) 1.7 8.33 (16:40) 3.33 (15:20) 0 0 0 0 0
07-01-2021 5.1 (15:40) -2.7 (-00:0) 1.2 2.78 (09:00) 1.39 (09:00) 0 0 0 0 0
06-01-2021 2.7 (16:30) -1 (-00:0) 0.9 2.78 (15:10) 1.39 (01:40) 0 0 0 0 0
05-01-2021 1.9 (17:00) -3.6 (-00:0) -0.8 2.5 (23:59) 0.83 (10:40) 0 0 0 0 0
04-01-2021 5.1 (16:00) -1.9 (-00:0) 1.6 3.06 (16:00) 1.11 (14:40) 0.2 0 0 0.2 0
03-01-2021 6.6 (15:40) -0.6 (-00:0) 3 5.28 (15:50) 1.94 (15:40) 0.4 0 0 0.4 0
02-01-2021 5.2 (16:50) -0.5 (-00:0) 2.3 1.94 (12:30) 0.83 (20:20) 0.2 0 0 0 0.2
01-01-2021 6.1 (15:30) -0.3 (00:00) 2.9 7.22 (13:50) 3.06 (13:50) 3.9 0.1 1.8 2 0
31-12-2020 8.7 (12:30) 2.3 (00:00) 5.5 8.61 (15:30) 3.33 (15:40) 15.1 7 5.8 1.6 0.7
30-12-2020 6.2 (16:50) -0.5 (-00:0) 2.8 3.06 (17:20) 1.11 (15:20) 3.1 0.2 0 0.2 2.7
29-12-2020 8.8 (14:20) 0.4 (00:00) 4.6 8.06 (16:10) 3.89 (14:30) 6.2 1.9 0.9 3.3 0.1
28-12-2020 8.2 (16:40) 3.1 (00:00) 5.6 12.78 (00:20) 4.72 (00:40) 5.7 2.4 0.3 2.7 0.3
27-12-2020 10.1 (20:40) -2.5 (-00:0) 3.8 13.61 (23:20) 5.28 (21:00) 5 0 0 0.3 4.7
26-12-2020 9.7 (15:30) -2.8 (-00:0) 3.4 3.06 (14:10) 0.83 (14:50) 0 0 0 0 0

Gráficas

Temp. máximas Temp. mínimas Temp. medias Precipitaciones Rachas de viento máximas Velocidades máximas media en intervalos de 10 minutos

Datos horarios

Fecha y hora oficial Temperatura (ºC) Velocidad del viento (km/h) Dirección del viento Racha (km/h) Dirección de racha Precipitación (mm) Presión (hPa) Tendencia (hPa) Humedad (%)
2021-01-24 23:00:00 8.8 0 Calma 4 Sudeste 0.6 -- -- 93
2021-01-24 22:00:00 8.9 0 Calma -- -- 0 -- -- 90
2021-01-24 21:00:00 9.2 0 Calma 4 Sudeste 0 -- -- 89
2021-01-24 20:00:00 9.4 0 Calma 7 Sudoeste 0 -- -- 87
2021-01-24 19:00:00 9.7 2 Sudoeste 8 Sudoeste 0 -- -- 85
2021-01-24 18:00:00 10.2 0 Calma 14 Sudoeste 0 -- -- 79
2021-01-24 17:00:00 10.1 3 Sudoeste 14 Oeste 0 -- -- 82
2021-01-24 16:00:00 10.6 5 Oeste 16 Oeste 0 -- -- 82
2021-01-24 15:00:00 10.2 6 Sudoeste 17 Sudoeste 0 -- -- 88
2021-01-24 14:00:00 10.3 5 Sudoeste 17 Oeste 0.1 -- -- 90
2021-01-24 13:00:00 9.1 4 Sudoeste 16 Sudoeste 0.7 -- -- 97
2021-01-24 12:00:00 8.4 4 Sudoeste 15 Sur 0.6 -- -- 97
2021-01-24 11:00:00 8.5 4 Sudoeste 13 Sudoeste 0 -- -- 98
2021-01-24 10:00:00 6.9 0 Calma 6 Sur 0 -- -- 97
2021-01-24 09:00:00 6 0 Calma 6 Sudoeste 0 -- -- 96
2021-01-24 08:00:00 6.1 0 Calma 6 Sudoeste 0 -- -- 95
2021-01-24 07:00:00 6.1 2 Oeste 8 Oeste 0 -- -- 93
2021-01-24 06:00:00 6.5 0 Calma 13 Sudoeste 0 -- -- 90
2021-01-24 05:00:00 7.1 0 Calma 10 Sudoeste 0 -- -- 88
2021-01-24 04:00:00 8 0 Calma 13 Oeste 0 -- -- 87
2021-01-24 03:00:00 8.5 4 Sudoeste 20 Sudoeste 0 -- -- 88
2021-01-24 02:00:00 9 6 Oeste 24 Noroeste 0 -- -- 89
2021-01-24 01:00:00 9.2 6 Oeste 36 Sudoeste 0.7 -- -- 92
2021-01-24 00:00:00 9.4 8 Oeste 29 Oeste 0.2 -- -- 85
2021-01-23 23:00:00 9.9 12 Oeste 33 Sur 0 -- -- 84
2021-01-23 22:00:00 10 11 Oeste 36 Noroeste 0.1 -- -- 81
2021-01-23 21:00:00 10.3 12 Oeste 35 Oeste 0 -- -- 88
2021-01-23 20:00:00 10.1 9 Oeste 35 Oeste 0.3 -- -- 85
2021-01-23 19:00:00 10.8 12 Oeste 35 Sudoeste 0 -- -- 79
2021-01-23 18:00:00 11 11 Oeste 42 Sudoeste 0 -- -- 76
2021-01-23 17:00:00 12.8 19 Oeste 49 Oeste 0.6 -- -- 91
2021-01-23 16:00:00 13.1 12 Oeste 35 Sudoeste 1.9 -- -- 97
2021-01-23 15:00:00 12.6 8 Sudoeste 30 Sudoeste 1.4 -- -- 98
2021-01-23 14:00:00 10.8 3 Sur 12 Sudeste 2.1 -- -- 98
2021-01-23 13:00:00 10 2 Sur 17 Sudeste 1.6 -- -- 97
2021-01-23 12:00:00 9.3 0 Calma 13 Sudoeste 1.2 -- -- 97
2021-01-23 11:00:00 8.8 3 Sur 14 Sur 1.3 -- -- 96
2021-01-23 10:00:00 8.6 4 Sudoeste 28 Oeste 0.3 -- -- 96
2021-01-23 09:00:00 8 5 Sudoeste 15 Sudoeste 0.8 -- -- 96
2021-01-23 08:00:00 8.1 4 Sudoeste 18 Oeste 0.5 -- -- 92
2021-01-23 07:00:00 8.3 7 Sudoeste 23 Noroeste 0.2 -- -- 90
2021-01-23 06:00:00 8.1 4 Sudoeste 22 Sudoeste 0.1 -- -- 92
2021-01-23 05:00:00 7.6 4 Sudoeste 15 Sudoeste 0.7 -- -- 95
2021-01-23 04:00:00 7.5 3 Sudoeste 27 Oeste 0.4 -- -- 95
2021-01-23 03:00:00 7.4 5 Sudoeste 18 Sudoeste 0.5 -- -- 96
2021-01-23 02:00:00 7.2 0 Calma 14 Oeste 1 -- -- 94
2021-01-23 01:00:00 7.1 0 Calma 17 Sudoeste 0 -- -- 93
2021-01-23 00:00:00 7.1 3 Sur 18 Sur 0.1 -- -- 94
2021-01-22 23:00:00 7 3 Sudoeste 12 Sur 0.1 -- -- 94
2021-01-22 22:00:00 6.7 4 Sudoeste 15 Sudoeste 3.2 -- -- 94
2021-01-22 21:00:00 7.1 4 Sur 13 Sur 0.6 -- -- 92
2021-01-22 20:00:00 7.3 3 Sudoeste 12 Sudoeste 0.4 -- -- 90
2021-01-22 19:00:00 7.4 3 Sudoeste 18 Oeste 0.2 -- -- 88
2021-01-22 18:00:00 8 6 Sudoeste 18 Noroeste 0 -- -- 84
2021-01-22 17:00:00 8.5 6 Oeste 24 Oeste 0.5 -- -- 80
2021-01-22 16:00:00 9.6 7 Oeste 24 Oeste 0 -- -- 70
2021-01-22 15:00:00 10.3 9 Oeste 25 Oeste 0 -- -- 65
2021-01-22 14:00:00 9.5 8 Oeste 20 Sudoeste 0.4 -- -- 77
2021-01-22 13:00:00 8.9 7 Oeste 15 Oeste 0 -- -- 79
2021-01-22 12:00:00 8.5 6 Oeste 14 Oeste 0 -- -- 80
2021-01-22 11:00:00 7.1 0 Calma 13 Oeste 0 -- -- 94
2021-01-22 10:00:00 6.6 0 Calma 5 Sudeste 0 -- -- 93
2021-01-22 09:00:00 6.5 0 Calma 8 Nordeste 0 -- -- 92
2021-01-22 08:00:00 7 0 Calma 12 Este 0 -- -- 89
2021-01-22 07:00:00 7.4 0 Calma 17 Noroeste 0 -- -- 90
2021-01-22 06:00:00 7.5 8 Noroeste 37 Oeste 0.5 -- -- 91
2021-01-22 05:00:00 6.9 11 Oeste 46 Oeste 1.9 -- -- 90
2021-01-22 04:00:00 7.7 9 Sudoeste 40 Sudoeste 0.2 -- -- 85
2021-01-22 03:00:00 7.6 24 Oeste 63 Oeste 2.1 -- -- 85
2021-01-22 02:00:00 8.9 11 Oeste 41 Oeste 1.3 -- -- 91
2021-01-22 01:00:00 8.5 8 Oeste 43 Oeste 2.1 -- -- 92
2021-01-22 00:00:00 9.6 4 Sudoeste 21 Sur 7 -- -- 95
2021-01-21 23:00:00 9.2 2 Sudoeste 15 Sur 1.7 -- -- 93
2021-01-21 22:00:00 9.2 4 Sudoeste 18 Sur 1.6 -- -- 88
2021-01-21 21:00:00 10.4 4 Sudoeste 26 Sur 0.3 -- -- 77
2021-01-21 20:00:00 11 7 Sudoeste 28 Sudoeste 0 -- -- 70
2021-01-21 19:00:00 11.2 6 Sudoeste 32 Oeste 0 -- -- 71
2021-01-21 18:00:00 11 7 Sudoeste 25 Noroeste 0 -- -- 74
2021-01-21 17:00:00 11.5 9 Sudoeste 30 Sudoeste 0 -- -- 69
2021-01-21 16:00:00 12.4 10 Oeste 34 Noroeste 0 -- -- 66
2021-01-21 15:00:00 12.9 12 Oeste 34 Oeste 0 -- -- 66
2021-01-21 14:00:00 13.4 12 Sudoeste 38 Sudoeste 0 -- -- 67
2021-01-21 13:00:00 13.4 10 Oeste 42 Oeste 0 -- -- 72
2021-01-21 12:00:00 12.3 13 Oeste 35 Oeste 0.2 -- -- 94
2021-01-21 11:00:00 10.3 4 Sudoeste 20 Sudoeste 1.5 -- -- 97
2021-01-21 10:00:00 9.8 5 Sudoeste 26 Sudoeste 3.1 -- -- 95
2021-01-21 09:00:00 9.7 8 Sudoeste 28 Oeste 2 -- -- 97
2021-01-21 08:00:00 9.5 2 Sur 19 Sur 0.3 -- -- 98
2021-01-21 07:00:00 9.1 5 Sur 25 Sudoeste 0.4 -- -- 98
2021-01-21 06:00:00 9.2 5 Sudoeste 22 Sudoeste 0.5 -- -- 98
2021-01-21 05:00:00 9.2 2 Sur 12 Sur 0.4 -- -- 97
2021-01-21 04:00:00 9.2 2 Sur 9 Sur 1 -- -- 97
2021-01-21 03:00:00 9.1 0 Calma 10 Oeste 0.2 -- -- 97
2021-01-21 02:00:00 9.3 3 Sudoeste 12 Sur 0.3 -- -- 96
2021-01-21 01:00:00 9.5 3 Sudoeste 15 Sudoeste 0.5 -- -- 96
2021-01-21 00:00:00 9.4 4 Sudoeste 15 Oeste 0.1 -- -- 96
2021-01-20 23:00:00 9.7 7 Sudoeste 23 Sudoeste 0.9 -- -- 96
2021-01-20 22:00:00 9.7 0 Calma 15 Oeste 0.5 -- -- 95
2021-01-20 21:00:00 10 3 Sur 15 Oeste 1 -- -- 95
2021-01-20 20:00:00 9.9 4 Sudoeste 22 Sur 1 -- -- 95
2021-01-20 19:00:00 10.1 0 Calma 19 Sudoeste 0.6 -- -- 94
2021-01-20 18:00:00 10.2 4 Sudoeste 25 Oeste 1.4 -- -- 94
2021-01-20 17:00:00 10.6 6 Sudoeste 33 Noroeste 1.6 -- -- 92
2021-01-20 16:00:00 10.6 9 Sudoeste 48 Sudoeste 2 -- -- 90
2021-01-20 15:00:00 11.3 6 Sudoeste 44 Sudoeste 0.2 -- -- 89
2021-01-20 14:00:00 11 4 Sudoeste 28 Sur 0.3 -- -- 94
2021-01-20 13:00:00 10.2 5 Sudoeste 19 Oeste 0.5 -- -- 97
2021-01-20 12:00:00 10.1 5 Sudoeste 20 Sudoeste 4.1 -- -- 97
2021-01-20 11:00:00 9.7 4 Oeste 21 Sudeste 5 -- -- 96
2021-01-20 10:00:00 9.1 5 Sur 30 Sur 1.3 -- -- 94
2021-01-20 09:00:00 9.2 8 Sur 27 Sudeste 0.9 -- -- 96
2021-01-20 08:00:00 8.1 6 Sur 19 Nordeste 0.4 -- -- 97
2021-01-20 07:00:00 7.1 0 Calma 10 Nordeste 0.6 -- -- 96
2021-01-20 06:00:00 7.1 3 Este 11 Nordeste 1 -- -- 96
2021-01-20 05:00:00 7.1 5 Este 21 Este 0.9 -- -- 96
2021-01-20 04:00:00 7 2 Sudeste 21 Sudeste 3.6 -- -- 95
2021-01-20 03:00:00 6.7 8 Este 21 Este 4.3 -- -- 95
2021-01-20 02:00:00 6.8 5 Este 15 Sudeste 2.3 -- -- 91
2021-01-20 01:00:00 7.5 5 Sudeste 21 Sudeste 0.9 -- -- 83
2021-01-20 00:00:00 8.4 5 Sudeste 22 Sudeste 0.8 -- -- 79
2021-01-19 23:00:00 9 5 Sur 17 Sur 0 -- -- 71
2021-01-19 22:00:00 8.9 3 Sudeste 18 Sudeste 0 -- -- 67
2021-01-19 21:00:00 9.8 4 Sudeste 29 Sur 0 -- -- 64
2021-01-19 20:00:00 10 7 Sur 19 Sudeste 0 -- -- 63
2021-01-19 19:00:00 10.3 5 Sur 23 Sur 0 -- -- 63
2021-01-19 18:00:00 10.6 6 Sur 23 Sur 0 -- -- 61
2021-01-19 17:00:00 11.1 4 Sur 17 Sudoeste 0 -- -- 60
2021-01-19 16:00:00 11.3 4 Sudeste 13 Sudeste 0 -- -- 61
2021-01-19 15:00:00 10.1 4 Sur 18 Sudeste 0 -- -- 67
2021-01-19 14:00:00 9.6 2 Sudoeste 16 Sudoeste 0 -- -- 68
2021-01-19 13:00:00 8.8 0 Calma 8 Sudoeste 0 -- -- 70
2021-01-19 12:00:00 6.5 0 Calma 9 Nordeste 0 -- -- 83
2021-01-19 11:00:00 4.4 5 Nordeste 10 Nordeste 0 -- -- 92
2021-01-19 10:00:00 2.7 5 Nordeste 11 Nordeste 0 -- -- 98
2021-01-19 09:00:00 1.5 4 Nordeste 10 Nordeste 0 -- -- 98
2021-01-19 08:00:00 0.6 0 Calma 10 Nordeste 0 -- -- 99
2021-01-19 07:00:00 0 0 Calma 4 Nordeste 0 -- -- 98
2021-01-19 06:00:00 -0.4 2 Norte 7 Nordeste 0 -- -- 98
2021-01-19 05:00:00 0 0 Calma 8 Nordeste 0 -- -- 98
2021-01-19 04:00:00 -0.2 0 Calma 4 Nordeste 0 -- -- 97
2021-01-19 03:00:00 0 0 Calma 4 Norte 0 -- -- 96
2021-01-19 02:00:00 0 0 Calma 5 Norte 0 -- -- 96
2021-01-19 01:00:00 0.8 0 Calma 3 Norte 0 -- -- 95
2021-01-19 00:00:00 1.6 0 Calma 8 Nordeste 0 -- -- 94
2021-01-18 23:00:00 2.3 0 Calma 4 Este 0 -- -- 93
2021-01-18 22:00:00 3.3 0 Calma 5 Norte 0 -- -- 91
2021-01-18 21:00:00 4.5 0 Calma 3 Norte 0 -- -- 89
2021-01-18 20:00:00 6.2 0 Calma -- -- 0 -- -- 83
2021-01-18 19:00:00 8 0 Calma -- -- 0 -- -- 77
2021-01-18 18:00:00 10.9 0 Calma 4 Sur 0 -- -- 70
2021-01-18 17:00:00 11.9 0 Calma 7 Sur 0 -- -- 66
2021-01-18 16:00:00 11.9 3 Sur 9 Sur 0 -- -- 66
2021-01-18 15:00:00 11.3 2 Sudoeste 6 Sur 0 -- -- 74
2021-01-18 14:00:00 9 2 Sur 6 Sur 0 -- -- 89
2021-01-18 13:00:00 6.1 0 Calma 5 Sur 0 -- -- 99
2021-01-18 12:00:00 5.5 0 Calma 4 Nordeste 0 -- -- 99
2021-01-18 11:00:00 5.2 0 Calma 3 Norte 0 -- -- 99
2021-01-18 10:00:00 4.6 0 Calma 0 Calma 0 -- -- 99
2021-01-18 09:00:00 4.3 0 Calma 5 Nordeste 0 -- -- 99
2021-01-18 08:00:00 4 0 Calma 2 Norte 0 -- -- 99
2021-01-18 07:00:00 3.7 0 Calma -- -- 0 -- -- 99
2021-01-18 06:00:00 3.4 0 Calma 4 Nordeste 0 -- -- 98
2021-01-18 05:00:00 2.6 0 Calma -- -- 0 -- -- 98
2021-01-18 04:00:00 2 0 Calma -- -- 0 -- -- 97
2021-01-18 03:00:00 1.4 0 Calma 3 Norte 0 -- -- 97
2021-01-18 02:00:00 0.7 0 Calma 6 Nordeste 0 -- -- 97
2021-01-18 01:00:00 1.3 0 Calma 6 Nordeste 0 -- -- 96
2021-01-18 00:00:00 2 0 Calma 0 Calma 0 -- -- 95
2021-01-17 23:00:00 2.7 0 Calma 0 Calma 0 -- -- 93
2021-01-17 22:00:00 3.3 0 Calma 0 Calma 0 -- -- 90
2021-01-17 21:00:00 4.5 0 Calma -- -- 0 -- -- 86
2021-01-17 20:00:00 5.8 0 Calma -- -- 0 -- -- 79
2021-01-17 19:00:00 7.6 0 Calma -- -- 0 -- -- 69
2021-01-17 18:00:00 10.4 0 Calma 6 Sudoeste 0 -- -- 61
2021-01-17 17:00:00 11.8 2 Sur 7 Sudeste 0 -- -- 56
2021-01-17 16:00:00 12.3 2 Sur 8 Sudoeste 0 -- -- 56
2021-01-17 15:00:00 11 0 Calma 5 Oeste 0 -- -- 61
2021-01-17 14:00:00 9.5 0 Calma 6 Sur 0 -- -- 61
2021-01-17 13:00:00 8.2 0 Calma 5 Sur 0 -- -- 78
2021-01-17 12:00:00 3.3 0 Calma 2 Sur 0 -- -- 99
2021-01-17 11:00:00 -0.8 0 Calma -- -- 0 -- -- 99
2021-01-17 10:00:00 -2.4 0 Calma 2 Este 0 -- -- 98
2021-01-17 09:00:00 -2.8 0 Calma 0 Calma 0 -- -- 98
2021-01-17 08:00:00 -2.6 0 Calma -- -- 0 -- -- 98
2021-01-17 07:00:00 -2.5 0 Calma -- -- 0 -- -- 97
2021-01-17 06:00:00 -2.2 0 Calma -- -- 0 -- -- 97
2021-01-17 05:00:00 -2.1 0 Calma -- -- 0 -- -- 97
2021-01-17 04:00:00 -1.7 0 Calma 2 Norte 0 -- -- 97
2021-01-17 03:00:00 -1.5 0 Calma 3 Nordeste 0 -- -- 96
2021-01-17 02:00:00 -1.3 0 Calma -- -- 0 -- -- 96
2021-01-17 01:00:00 -0.9 0 Calma -- -- 0 -- -- 95
2021-01-17 00:00:00 -0.5 0 Calma 3 Norte 0 -- -- 94
2021-01-16 23:00:00 0.1 0 Calma -- -- 0 -- -- 93
2021-01-16 22:00:00 0.7 0 Calma 0 Calma 0 -- -- 91
2021-01-16 21:00:00 1.5 0 Calma -- -- 0 -- -- 88
2021-01-16 20:00:00 2.5 0 Calma -- -- 0 -- -- 84
2021-01-16 19:00:00 4.4 0 Calma 2 Sur 0 -- -- 78
2021-01-16 18:00:00 6.7 0 Calma 5 Sur 0 -- -- 72
2021-01-16 17:00:00 7.7 0 Calma 5 Sudoeste 0 -- -- 69
2021-01-16 16:00:00 7.8 3 Sur 7 Sudoeste 0 -- -- 70
2021-01-16 15:00:00 6.5 3 Sudoeste 8 Sur 0 -- -- 79
2021-01-16 14:00:00 4.4 0 Calma 6 Oeste 0 -- -- 92
2021-01-16 13:00:00 2.7 0 Calma 6 Sudeste 0 -- -- 97
2021-01-16 12:00:00 2 0 Calma 6 Nordeste 0 -- -- 98
2021-01-16 11:00:00 1.9 3 Norte 8 Norte 0 -- -- 98
2021-01-16 10:00:00 1.4 2 Norte 7 Nordeste 0 -- -- 97
2021-01-16 09:00:00 1.5 2 Oeste 7 Oeste 0 -- -- 97
2021-01-16 08:00:00 2 2 Noroeste 5 Oeste 0 -- -- 96
2021-01-16 07:00:00 2 0 Calma 6 Nordeste 0 -- -- 96
2021-01-16 06:00:00 2.3 0 Calma 5 Norte 0 -- -- 95
2021-01-16 05:00:00 2.8 0 Calma 8 Norte 0 -- -- 94
2021-01-16 04:00:00 3.1 0 Calma 5 Noroeste 0 -- -- 93
2021-01-16 03:00:00 3.6 0 Calma 6 Nordeste 0 -- -- 93
2021-01-16 02:00:00 3.8 0 Calma 5 Noroeste 0 -- -- 92
2021-01-16 01:00:00 4.1 0 Calma 3 Oeste 0 -- -- 92
2021-01-16 00:00:00 4.2 2 Sudoeste 7 Oeste 0 -- -- 91
2021-01-15 23:00:00 4.5 0 Calma 5 Sudoeste 0 -- -- 90
2021-01-15 22:00:00 4.8 0 Calma 4 Sur 0 -- -- 90
2021-01-15 21:00:00 5.2 0 Calma 6 Este 0 -- -- 90
2021-01-15 20:00:00 5.3 0 Calma 5 Sudeste 0 -- -- 89
2021-01-15 19:00:00 5.7 0 Calma 6 Sur 0 -- -- 86
2021-01-15 18:00:00 6.1 3 Sudeste 8 Sudeste 0 -- -- 83
2021-01-15 17:00:00 7 0 Calma 8 Sudeste 0 -- -- 79
2021-01-15 16:00:00 7.5 3 Sur 9 Sur 0 -- -- 80
2021-01-15 15:00:00 7.2 3 Sur 10 Nordeste 0 -- -- 83
2021-01-15 14:00:00 6.9 0 Calma 10 Sudeste 0 -- -- 85
2021-01-15 13:00:00 6.2 2 Este 8 Este 0 -- -- 90
2021-01-15 12:00:00 5.9 3 Este 10 Sudeste 0 -- -- 94
2021-01-15 11:00:00 5.9 0 Calma 7 Sudeste 0 -- -- 97
2021-01-15 10:00:00 5.5 2 Este 4 Este 0 -- -- 97
2021-01-15 09:00:00 5.2 0 Calma 2 Norte 0 -- -- 97
2021-01-15 08:00:00 5.2 0 Calma 0 Calma 0 -- -- 97
2021-01-15 07:00:00 5.1 0 Calma 4 Nordeste 0 -- -- 96
2021-01-15 06:00:00 5.2 0 Calma 5 Nordeste 0 -- -- 96
2021-01-15 05:00:00 5.1 0 Calma 4 Este 0 -- -- 95
2021-01-15 04:00:00 5.1 0 Calma 4 Sudeste 0 -- -- 95
2021-01-15 03:00:00 5.2 0 Calma 4 Nordeste 0 -- -- 94
2021-01-15 02:00:00 5.1 0 Calma -- -- 0 -- -- 94
2021-01-15 01:00:00 5.2 0 Calma -- -- 0 -- -- 92
2021-01-15 00:00:00 5.2 0 Calma -- -- 0 -- -- 90
2021-01-14 23:00:00 5.2 0 Calma -- -- 0 -- -- 90
2021-01-14 22:00:00 5.4 0 Calma -- -- 0 -- -- 88
2021-01-14 21:00:00 5.5 0 Calma -- -- 0 -- -- 87
2021-01-14 20:00:00 5.4 0 Calma -- -- 0 -- -- 85
2021-01-14 19:00:00 5.7 0 Calma -- -- 0 -- -- 84
2021-01-14 18:00:00 5.9 0 Calma 3 Sur 0 -- -- 84
2021-01-14 17:00:00 5.9 0 Calma 5 Sudoeste 0 -- -- 83
2021-01-14 16:00:00 5.8 0 Calma 4 Sur 0 -- -- 86
2021-01-14 15:00:00 5.3 2 Sur 5 Sur 0 -- -- 89
2021-01-14 14:00:00 4.2 0 Calma 4 Noroeste 0 -- -- 98
2021-01-14 13:00:00 3.4 0 Calma 5 Noroeste 0 -- -- 99
2021-01-14 12:00:00 2.6 0 Calma 3 Norte 0 -- -- 99
2021-01-14 11:00:00 0.8 0 Calma -- -- 0 -- -- 99
2021-01-14 10:00:00 -0.3 0 Calma -- -- 0 -- -- 99
2021-01-14 09:00:00 -1 0 Calma -- -- 0 -- -- 99
2021-01-14 08:00:00 -1.7 0 Calma 4 Norte 0 -- -- 99
2021-01-14 07:00:00 -2.6 0 Calma 3 Nordeste 0 -- -- 99
2021-01-14 06:00:00 -3.5 0 Calma -- -- 0 -- -- 98
2021-01-14 05:00:00 -3.3 0 Calma 2 Norte 0 -- -- 97
2021-01-14 04:00:00 -3.2 0 Calma 2 Norte 0 -- -- 97
2021-01-14 03:00:00 -3 0 Calma 0 Calma 0 -- -- 96
2021-01-14 02:00:00 -2.4 0 Calma -- -- 0 -- -- 96
2021-01-14 01:00:00 -1.8 0 Calma 6 Nordeste 0 -- -- 96
2021-01-14 00:00:00 -1.4 0 Calma 0 Calma 0 -- -- 94
2021-01-13 23:00:00 -1 0 Calma -- -- 0 -- -- 92
2021-01-13 22:00:00 0 0 Calma -- -- 0 -- -- 89
2021-01-13 21:00:00 1 0 Calma -- -- 0 -- -- 85
2021-01-13 20:00:00 2.7 0 Calma 0 Calma 0 -- -- 79
2021-01-13 19:00:00 4.5 0 Calma 5 Norte 0 -- -- 69
2021-01-13 18:00:00 7.8 0 Calma 6 Sur 0 -- -- 59
2021-01-13 17:00:00 9.5 0 Calma 6 Sur 0 -- -- 56
2021-01-13 16:00:00 10 3 Sur 6 Sudoeste 0 -- -- 54
2021-01-13 15:00:00 9.4 3 Sudoeste 8 Sudoeste 0 -- -- 57
2021-01-13 14:00:00 8.2 2 Sur 5 Sur 0 -- -- 60
2021-01-13 13:00:00 6.1 0 Calma 4 Sur 0 -- -- 78
2021-01-13 12:00:00 1.8 0 Calma -- -- 0 -- -- 99
2021-01-13 11:00:00 -3 0 Calma -- -- 0 -- -- 99
2021-01-13 10:00:00 -4.8 0 Calma -- -- 0 -- -- 98
2021-01-13 09:00:00 -4.8 0 Calma -- -- 0 -- -- 98
2021-01-13 08:00:00 -4.8 0 Calma -- -- 0 -- -- 97
2021-01-13 07:00:00 -4.3 0 Calma -- -- 0 -- -- 98
2021-01-13 06:00:00 -3.8 0 Calma -- -- 0 -- -- 97
2021-01-13 05:00:00 -3.4 0 Calma 3 Nordeste 0 -- -- 97
2021-01-13 04:00:00 -2.9 0 Calma 4 Este 0 -- -- 96
2021-01-13 03:00:00 -2.6 0 Calma 4 Norte 0 -- -- 96
2021-01-13 02:00:00 -2.2 0 Calma -- -- 0 -- -- 95
2021-01-13 01:00:00 -1.4 0 Calma 9 Nordeste 0 -- -- 95
2021-01-13 00:00:00 -1.1 0 Calma 9 Nordeste 0 -- -- 93
2021-01-12 23:00:00 -1 0 Calma 4 Nordeste 0 -- -- 90
2021-01-12 22:00:00 -0.2 0 Calma -- -- 0 -- -- 87
2021-01-12 21:00:00 0.9 0 Calma -- -- 0 -- -- 82
2021-01-12 20:00:00 2.4 0 Calma -- -- 0 -- -- 75
2021-01-12 19:00:00 4.6 0 Calma -- -- 0 -- -- 64
2021-01-12 18:00:00 7.4 0 Calma 6 Sur 0 -- -- 57
2021-01-12 17:00:00 9 2 Sur 7 Sur 0 -- -- 52
2021-01-12 16:00:00 9.5 4 Sudoeste 8 Sudoeste 0 -- -- 50
2021-01-12 15:00:00 8.9 2 Oeste 8 Sudeste 0 -- -- 53
2021-01-12 14:00:00 7.9 4 Sur 7 Sur 0 -- -- 57
2021-01-12 13:00:00 6.3 0 Calma 5 Sudoeste 0 -- -- 68
2021-01-12 12:00:00 1.1 0 Calma 4 Sudoeste 0 -- -- 98
2021-01-12 11:00:00 -2.5 0 Calma -- -- 0 -- -- 98
2021-01-12 10:00:00 -4 0 Calma -- -- 0 -- -- 98
2021-01-12 09:00:00 -4.4 0 Calma 2 Norte 0 -- -- 98
2021-01-12 08:00:00 -4.1 0 Calma 4 Nordeste 0 -- -- 98
2021-01-12 07:00:00 -3.6 0 Calma 5 Nordeste 0 -- -- 97
2021-01-12 06:00:00 -3.5 0 Calma 2 Norte 0 -- -- 97
2021-01-12 05:00:00 -3.2 0 Calma 4 Norte 0 -- -- 96
2021-01-12 04:00:00 -2.8 0 Calma 4 Norte 0 -- -- 96
2021-01-12 03:00:00 -2.6 0 Calma 4 Norte 0 -- -- 95
2021-01-12 02:00:00 -2.2 0 Calma 5 Nordeste 0 -- -- 94
2021-01-12 01:00:00 -1.9 0 Calma 3 Noroeste 0 -- -- 92
2021-01-12 00:00:00 -1.5 0 Calma 0 Calma 0 -- -- 91
2021-01-11 23:00:00 -0.7 0 Calma -- -- 0 -- -- 88
2021-01-11 22:00:00 0.3 0 Calma -- -- 0 -- -- 84
2021-01-11 21:00:00 1.3 0 Calma 2 Sudoeste 0 -- -- 78
2021-01-11 20:00:00 3.1 0 Calma -- -- 0 -- -- 69
2021-01-11 19:00:00 5.5 0 Calma 5 Sur 0 -- -- 59
2021-01-11 18:00:00 8.6 0 Calma 15 Nordeste 0 -- -- 50
2021-01-11 17:00:00 9.8 0 Calma 9 Sur 0 -- -- 50
2021-01-11 16:00:00 10.5 4 Sudeste 17 Este 0 -- -- 45
2021-01-11 15:00:00 9.7 6 Este 12 Sudeste 0 -- -- 48
2021-01-11 14:00:00 8.8 3 Sur 12 Sur 0 -- -- 53
2021-01-11 13:00:00 8.1 3 Sur 11 Sur 0 -- -- 59
2021-01-11 12:00:00 4.2 0 Calma 5 Sur 0 -- -- 78
2021-01-11 11:00:00 0.6 2 Sur 8 Sur 0 -- -- 93
2021-01-11 10:00:00 -2 0 Calma 3 Noroeste 0 -- -- 93
2021-01-11 09:00:00 -2 0 Calma 3 Oeste 0 -- -- 92
2021-01-11 08:00:00 -1.8 0 Calma 5 Noroeste 0 -- -- 91
2021-01-11 07:00:00 -1.4 0 Calma 6 Noroeste 0 -- -- 90
2021-01-11 06:00:00 -1.1 0 Calma 5 Noroeste 0 -- -- 86
2021-01-11 05:00:00 0 0 Calma 9 Norte 0 -- -- 81
2021-01-11 04:00:00 -0.3 0 Calma 4 Noroeste 0 -- -- 80
2021-01-11 03:00:00 0.3 0 Calma 8 Noroeste 0 -- -- 76
2021-01-11 02:00:00 0.6 0 Calma 13 Este 0 -- -- 71
2021-01-11 01:00:00 1.6 0 Calma 7 Este 0 -- -- 66
2021-01-11 00:00:00 3.6 3 Sudeste 26 Nordeste 0 -- -- 60
2021-01-10 23:00:00 3.9 2 Sudeste 29 Nordeste 0 -- -- 60
2021-01-10 22:00:00 3.5 6 Norte 19 Nordeste 0 -- -- 61
2021-01-10 21:00:00 4.1 3 Nordeste 25 Nordeste 0 -- -- 59
2021-01-10 20:00:00 4.5 10 Norte 30 Norte 0 -- -- 58
2021-01-10 19:00:00 4.8 9 Norte 30 Nordeste 0 -- -- 57
2021-01-10 18:00:00 6.1 9 Norte 44 Nordeste 0 -- -- 54
2021-01-10 17:00:00 7.2 18 Nordeste 46 Nordeste 0 -- -- 46
2021-01-10 16:00:00 8.3 17 Nordeste 48 Nordeste 0 -- -- 45
2021-01-10 15:00:00 8.1 22 Nordeste 50 Nordeste 0 -- -- 47
2021-01-10 14:00:00 9.1 12 Nordeste 44 Norte 0 -- -- 46
2021-01-10 13:00:00 7.8 18 Nordeste 55 Nordeste 0 -- -- 49
2021-01-10 12:00:00 6.8 22 Nordeste 50 Nordeste 0 -- -- 58
2021-01-10 11:00:00 6 16 Nordeste 42 Nordeste 0 -- -- 64
2021-01-10 10:00:00 4.3 11 Nordeste 28 Nordeste 0 -- -- 68
2021-01-10 09:00:00 3.8 8 Norte 30 Norte 0 -- -- 69
2021-01-10 08:00:00 3.9 9 Nordeste 24 Nordeste 0 -- -- 72
2021-01-10 07:00:00 4 11 Nordeste 30 Nordeste 0 -- -- 71
2021-01-10 06:00:00 4.1 7 Nordeste 35 Nordeste 0 -- -- 72
2021-01-10 05:00:00 4.5 10 Nordeste 47 Nordeste 0 -- -- 70
2021-01-10 04:00:00 4.5 14 Nordeste 40 Norte 0 -- -- 69
2021-01-10 03:00:00 4.8 14 Nordeste 36 Nordeste 0 -- -- 69
2021-01-10 02:00:00 4.6 15 Nordeste 39 Nordeste 0 -- -- 69
2021-01-10 01:00:00 4.6 13 Nordeste 45 Nordeste 0 -- -- 69
2021-01-10 00:00:00 4.4 14 Nordeste 40 Nordeste 0 -- -- 69
2021-01-09 23:00:00 4.2 15 Nordeste 45 Nordeste 0 -- -- 69
2021-01-09 22:00:00 3.9 12 Nordeste 33 Nordeste 0 -- -- 71
2021-01-09 21:00:00 3.9 15 Nordeste 37 Nordeste 0 -- -- 72
2021-01-09 20:00:00 3.7 10 Nordeste 32 Nordeste 0 -- -- 71
2021-01-09 19:00:00 3.8 12 Nordeste 30 Nordeste 0 -- -- 70
2021-01-09 18:00:00 4.3 15 Nordeste 39 Nordeste 0 -- -- 62
2021-01-09 17:00:00 5.5 12 Norte 42 Nordeste 0 -- -- 55
2021-01-09 16:00:00 6.3 13 Nordeste 40 Nordeste 0 -- -- 53
2021-01-09 15:00:00 6.3 13 Nordeste 42 Nordeste 0 -- -- 52
2021-01-09 14:00:00 6 17 Nordeste 39 Nordeste 0 -- -- 52
2021-01-09 13:00:00 7.1 13 Nordeste 35 Nordeste 0 -- -- 53
2021-01-09 12:00:00 5.4 9 Nordeste 35 Nordeste 0 -- -- 58
2021-01-09 11:00:00 3.2 9 Nordeste 26 Nordeste 0 -- -- 66
2021-01-09 10:00:00 0.3 3 Nordeste 18 Norte 0 -- -- 80
2021-01-09 09:00:00 -2 0 Calma 7 Sudoeste 0 -- -- 86
2021-01-09 08:00:00 -2.1 3 Oeste 9 Noroeste 0 -- -- 91
2021-01-09 07:00:00 -3.5 0 Calma 5 Norte 0 -- -- 92
2021-01-09 06:00:00 -3.4 0 Calma 5 Sudoeste 0 -- -- 90
2021-01-09 05:00:00 -3.1 0 Calma 4 Noroeste 0 -- -- 89
2021-01-09 04:00:00 -2.3 0 Calma 9 Sudoeste 0 -- -- 88
2021-01-09 03:00:00 -1.3 0 Calma 7 Oeste 0 -- -- 84
2021-01-09 02:00:00 -1.3 0 Calma 8 Noroeste 0 -- -- 86
2021-01-09 01:00:00 -1.6 0 Calma 4 Noroeste 0 -- -- 90
2021-01-09 00:00:00 -1.6 0 Calma 4 Oeste 0 -- -- 89
2021-01-08 23:00:00 -0.7 0 Calma 7 Noroeste 0 -- -- 86
2021-01-08 22:00:00 0.4 2 Sur 9 Sudoeste 0 -- -- 83
2021-01-08 21:00:00 0.5 3 Oeste 24 Este 0 -- -- 77
2021-01-08 20:00:00 1.5 0 Calma 11 Noroeste 0 -- -- 70
2021-01-08 19:00:00 2.9 4 Noroeste 18 Norte 0 -- -- 59
2021-01-08 18:00:00 4.9 8 Norte 23 Norte 0 -- -- 50
2021-01-08 17:00:00 6.4 7 Nordeste 30 Nordeste 0 -- -- 46
2021-01-08 16:00:00 7.1 6 Nordeste 26 Nordeste 0 -- -- 45
2021-01-08 15:00:00 6.5 12 Nordeste 28 Nordeste 0 -- -- 46
2021-01-08 14:00:00 5.5 2 Nordeste 8 Nordeste 0 -- -- 63
2021-01-08 13:00:00 3.4 0 Calma 6 Sur 0 -- -- 82
2021-01-08 12:00:00 0.4 0 Calma 6 Sudeste 0 -- -- 97
2021-01-08 11:00:00 -2.6 0 Calma 2 Nordeste 0 -- -- 98
2021-01-08 10:00:00 -3.6 0 Calma 4 Norte 0 -- -- 97
2021-01-08 09:00:00 -3.3 0 Calma -- -- 0 -- -- 98
2021-01-08 08:00:00 -2.1 0 Calma 6 Noroeste 0 -- -- 99
2021-01-08 07:00:00 -1.6 2 Oeste 7 Noroeste 0 -- -- 99
2021-01-08 06:00:00 -1 4 Noroeste 6 Noroeste 0 -- -- 99
2021-01-08 05:00:00 -0.8 2 Norte 7 Norte 0 -- -- 98
2021-01-08 04:00:00 -0.7 0 Calma 6 Nordeste 0 -- -- 98
2021-01-08 03:00:00 -0.7 0 Calma 3 Nordeste 0 -- -- 98
2021-01-08 02:00:00 -1.5 0 Calma 3 Nordeste 0 -- -- 97
2021-01-08 01:00:00 -2.4 0 Calma -- -- 0 -- -- 96
2021-01-08 00:00:00 -2.7 0 Calma -- -- 0 -- -- 95
2021-01-07 23:00:00 -2.2 0 Calma 0 Calma 0 -- -- 94
2021-01-07 22:00:00 -1.7 0 Calma 0 Calma 0 -- -- 93
2021-01-07 21:00:00 -0.9 0 Calma 2 Sudoeste 0 -- -- 91
2021-01-07 20:00:00 0 0 Calma 6 Norte 0 -- -- 86
2021-01-07 19:00:00 1.3 0 Calma -- -- 0 -- -- 80
2021-01-07 18:00:00 3.6 0 Calma 9 Sudeste 0 -- -- 72
2021-01-07 17:00:00 4.9 2 Sudeste 8 Este 0 -- -- 69
2021-01-07 16:00:00 4.8 0 Calma 7 Nordeste 0 -- -- 72
2021-01-07 15:00:00 3.3 2 Oeste 5 Noroeste 0 -- -- 80
2021-01-07 14:00:00 1.9 3 Noroeste 8 Noroeste 0 -- -- 87
2021-01-07 13:00:00 0.7 2 Norte 7 Nordeste 0 -- -- 93
2021-01-07 12:00:00 0 3 Noroeste 7 Noroeste 0 -- -- 95
2021-01-07 11:00:00 -0.6 0 Calma 5 Este 0 -- -- 96
2021-01-07 10:00:00 -1 2 Nordeste 8 Oeste 0 -- -- 96
2021-01-07 09:00:00 -0.9 5 Oeste 10 Oeste 0 -- -- 95
2021-01-07 08:00:00 -0.4 0 Calma 8 Noroeste 0 -- -- 96
2021-01-07 07:00:00 -0.4 3 Nordeste 8 Nordeste 0 -- -- 96
2021-01-07 06:00:00 -0.2 3 Norte 8 Nordeste 0 -- -- 96
2021-01-07 05:00:00 0 0 Calma 5 Nordeste 0 -- -- 96
2021-01-07 04:00:00 0 0 Calma 5 Este 0 -- -- 95
2021-01-07 03:00:00 0.2 0 Calma 5 Nordeste 0 -- -- 95
2021-01-07 02:00:00 0.5 0 Calma 4 Norte 0 -- -- 96
2021-01-07 01:00:00 0.6 0 Calma 8 Nordeste 0 -- -- 96
2021-01-07 00:00:00 0.7 3 Norte 8 Norte 0 -- -- 96
2021-01-06 23:00:00 0.9 0 Calma 0 Calma 0 -- -- 96
2021-01-06 22:00:00 0.9 0 Calma -- -- 0 -- -- 96
2021-01-06 21:00:00 0.9 0 Calma 4 Oeste 0 -- -- 94
2021-01-06 20:00:00 1.1 0 Calma 5 Sudoeste 0 -- -- 93
2021-01-06 19:00:00 1.8 0 Calma 3 Oeste 0 -- -- 91
2021-01-06 18:00:00 2.4 0 Calma 6 Noroeste 0 -- -- 89
2021-01-06 17:00:00 2.6 0 Calma 6 Norte 0 -- -- 88
2021-01-06 16:00:00 2.5 0 Calma 10 Nordeste 0 -- -- 89
2021-01-06 15:00:00 2.1 2 Noroeste 9 Nordeste 0 -- -- 92
2021-01-06 14:00:00 1.5 3 Norte 7 Norte 0 -- -- 95
2021-01-06 13:00:00 1.3 0 Calma 5 Norte 0 -- -- 98
2021-01-06 12:00:00 0.7 0 Calma 7 Nordeste 0 -- -- 99
2021-01-06 11:00:00 0.6 0 Calma 6 Norte 0 -- -- 99
2021-01-06 10:00:00 0.2 0 Calma -- -- 0 -- -- 99
2021-01-06 09:00:00 0 0 Calma -- -- 0 -- -- 99
2021-01-06 08:00:00 -0.1 0 Calma -- -- 0 -- -- 99
2021-01-06 07:00:00 -0.3 0 Calma -- -- 0 -- -- 99
2021-01-06 06:00:00 -0.6 0 Calma -- -- 0 -- -- 99
2021-01-06 05:00:00 -0.8 0 Calma 3 Nordeste 0 -- -- 99
2021-01-06 04:00:00 -0.7 0 Calma 2 Oeste 0 -- -- 99
2021-01-06 03:00:00 -0.3 0 Calma 6 Oeste 0 -- -- 99
2021-01-06 02:00:00 -0.2 4 Oeste 8 Noroeste 0 -- -- 99
2021-01-06 01:00:00 0 4 Noroeste 7 Noroeste 0 -- -- 99
2021-01-06 00:00:00 0.1 3 Oeste 9 Noroeste 0 -- -- 99
2021-01-05 23:00:00 0.1 0 Calma 5 Nordeste 0 -- -- 99
2021-01-05 22:00:00 0.2 0 Calma -- -- 0 -- -- 99
2021-01-05 21:00:00 0.7 0 Calma -- -- 0 -- -- 99
2021-01-05 20:00:00 1.1 0 Calma -- -- 0 -- -- 99
2021-01-05 19:00:00 1.3 0 Calma 0 Calma 0 -- -- 99
2021-01-05 18:00:00 1.5 0 Calma 4 Sur 0 -- -- 99
2021-01-05 17:00:00 1.8 0 Calma 7 Sudeste 0 -- -- 99
2021-01-05 16:00:00 1.5 2 Sur 6 Sudeste 0 -- -- 99
2021-01-05 15:00:00 1.4 0 Calma 5 Oeste 0 -- -- 99
2021-01-05 14:00:00 0.4 0 Calma 5 Sur 0 -- -- 99
2021-01-05 13:00:00 -0.2 0 Calma 5 Este 0 -- -- 99
2021-01-05 12:00:00 -0.8 0 Calma 4 Norte 0 -- -- 99
2021-01-05 11:00:00 -1.9 0 Calma 8 Nordeste 0 -- -- 99
2021-01-05 10:00:00 -2.5 2 Nordeste 5 Nordeste 0 -- -- 99
2021-01-05 09:00:00 -2.7 0 Calma 3 Norte 0 -- -- 99
2021-01-05 08:00:00 -2.7 0 Calma 3 Este 0 -- -- 98
2021-01-05 07:00:00 -3 0 Calma 4 Sudeste 0 -- -- 98
2021-01-05 06:00:00 -3.4 0 Calma 5 Nordeste 0 -- -- 98
2021-01-05 05:00:00 -3.4 0 Calma -- -- 0 -- -- 97
2021-01-05 04:00:00 -3.1 0 Calma -- -- 0 -- -- 98
2021-01-05 03:00:00 -2.8 0 Calma -- -- 0 -- -- 98
2021-01-05 02:00:00 -2.1 0 Calma 3 Norte 0 -- -- 97
2021-01-05 01:00:00 -2.3 0 Calma 0 Calma 0 -- -- 97
2021-01-05 00:00:00 -1.9 0 Calma -- -- 0 -- -- 97
2021-01-04 23:00:00 -1.3 0 Calma 4 Norte 0 -- -- 97
2021-01-04 22:00:00 -1 0 Calma 4 Norte 0 -- -- 96
2021-01-04 21:00:00 -0.5 0 Calma 3 Norte 0 -- -- 94
2021-01-04 20:00:00 0.1 0 Calma -- -- 0 -- -- 92
2021-01-04 19:00:00 1.5 0 Calma 4 Oeste 0 -- -- 91
2021-01-04 18:00:00 3.1 0 Calma 3 Sur 0 -- -- 89
2021-01-04 17:00:00 4.7 0 Calma 5 Este 0 -- -- 86
2021-01-04 16:00:00 4.9 2 Norte 11 Noroeste 0.2 -- -- 94
2021-01-04 15:00:00 4.4 0 Calma 7 Sur 0 -- -- 99
2021-01-04 14:00:00 3.5 0 Calma 8 Sudoeste 0 -- -- 98
2021-01-04 13:00:00 2.6 0 Calma -- -- 0 -- -- 99
2021-01-04 12:00:00 0.7 0 Calma 3 Noroeste 0 -- -- 99
2021-01-04 11:00:00 0 0 Calma -- -- 0 -- -- 99
2021-01-04 10:00:00 -0.2 0 Calma 4 Noroeste 0 -- -- 99
2021-01-04 09:00:00 -0.3 0 Calma 0 Calma 0 -- -- 99
2021-01-04 08:00:00 -0.3 0 Calma 4 Noroeste 0 -- -- 99
2021-01-04 07:00:00 -0.5 0 Calma -- -- 0 -- -- 99
2021-01-04 06:00:00 -0.8 0 Calma -- -- 0 -- -- 98
2021-01-04 05:00:00 -1.3 0 Calma -- -- 0 -- -- 98
2021-01-04 04:00:00 -1.4 0 Calma 0 Calma 0 -- -- 98
2021-01-04 03:00:00 -1.2 0 Calma 4 Noroeste 0 -- -- 98
2021-01-04 02:00:00 -1.1 0 Calma -- -- 0 -- -- 97
2021-01-04 01:00:00 -0.9 0 Calma 3 Noroeste 0 -- -- 97
2021-01-04 00:00:00 -0.5 0 Calma 4 Noroeste 0 -- -- 97
2021-01-03 23:00:00 0.2 0 Calma -- -- 0 -- -- 95
2021-01-03 22:00:00 1.4 0 Calma -- -- 0 -- -- 95
2021-01-03 21:00:00 2.8 0 Calma -- -- 0 -- -- 95
2021-01-03 20:00:00 3.7 0 Calma 5 Noroeste 0 -- -- 93
2021-01-03 19:00:00 4.2 0 Calma 8 Oeste 0 -- -- 91
2021-01-03 18:00:00 5 4 Oeste 10 Oeste 0.4 -- -- 89
2021-01-03 17:00:00 5.9 0 Calma 11 Norte 0 -- -- 85
2021-01-03 16:00:00 6.4 6 Noroeste 19 Oeste 0 -- -- 82
2021-01-03 15:00:00 5.5 4 Sur 12 Sudoeste 0 -- -- 90
2021-01-03 14:00:00 5.2 5 Sur 12 Sur 0 -- -- 97
2021-01-03 13:00:00 3.9 0 Calma 9 Sur 0 -- -- 98
2021-01-03 12:00:00 2.1 0 Calma 5 Sur 0 -- -- 99
2021-01-03 11:00:00 0.8 0 Calma -- -- 0 -- -- 99
2021-01-03 10:00:00 0 0 Calma -- -- 0 -- -- 99
2021-01-03 09:00:00 -0.1 0 Calma -- -- 0 -- -- 99
2021-01-03 08:00:00 0.2 0 Calma 0 Calma 0 -- -- 99
2021-01-03 07:00:00 0 0 Calma 5 Este 0 -- -- 98
2021-01-03 06:00:00 -0.1 0 Calma -- -- 0 -- -- 99
2021-01-03 05:00:00 -0.6 0 Calma -- -- 0 -- -- 99
2021-01-03 04:00:00 -0.4 0 Calma -- -- 0 -- -- 99
2021-01-03 03:00:00 -0.2 0 Calma -- -- 0 -- -- 99
2021-01-03 02:00:00 -0.3 0 Calma 2 Norte 0 -- -- 98
2021-01-03 01:00:00 0 0 Calma 5 Nordeste 0 -- -- 98
2021-01-03 00:00:00 -0.2 0 Calma 2 Noroeste 0 -- -- 97
2021-01-02 23:00:00 -0.2 0 Calma -- -- 0 -- -- 96
2021-01-02 22:00:00 0.2 0 Calma 3 Noroeste 0.1 -- -- 95
2021-01-02 21:00:00 1.2 0 Calma 7 Noroeste 0 -- -- 94
2021-01-02 20:00:00 2.7 0 Calma 0 Calma 0 -- -- 93
2021-01-02 19:00:00 4.1 0 Calma 5 Este 0.1 -- -- 91
2021-01-02 18:00:00 4.2 0 Calma 7 Sur 0 -- -- 89
2021-01-02 17:00:00 5.1 2 Sudoeste 7 Sur 0 -- -- 92
2021-01-02 16:00:00 4.9 0 Calma -- -- 0 -- -- 94
2021-01-02 15:00:00 4.7 0 Calma -- -- 0 -- -- 97
2021-01-02 14:00:00 3.9 0 Calma 6 Nordeste 0 -- -- 99